aviador You're here:

KDUJ Decoded Metar

DU BOIS in PA, USA
Report Time2018-07-22 15:53:00
UTC Time2018-07-22 16:09:12
Flight Rules ifr IFR
WindVRB at 06 kt
Visibility9999 m
Phenomena:N/A
Clouds:Overcast 007 Hf
Expected CloudBase > 400 ft AGL from Temp-Dew spread
Ceiling700 ft
Temp17°C (ISA +6)
Dew Point16°C (94% RH)
AAT16.8°C
QNH1009 hPa
Density Alt2,861 ft
Elevation1,818 ft
Report Wrong Elevation
Raw Report
KDUJ 221553Z AUTO VRB06KT 8SM OVC007 17/16 A2981 RMK AO2 SLP088
T01720161=

Extra information for KDUJ:More info

Metar Taf Metar & Taf Last 4 Metars F.Rules Stats Wind Profile Meteogram Temp Stats Airport Information Weather charts Add Link Nearby VenuesMetar ALERT Operation Metar Decoded Social comments

AIRNAV info for KDUJ